Old Fields, West Virginia
Current Conditions -  °F | °C
As of 6:35 PM on Saturday 22 Nov 2014 (Local Time) from KW99 Reporting Station
Broken Clouds Broken Clouds  
Wind Chill: 54°   Ceiling: 11000
Heat Index: 54°   Visibility: 10mi
Dew Point: 16°   Wind: 10mph
Humidity: 23%   Direction: 190°S
Pressure: 30.21"   Gusts: 16mph
Location:  39.14°N, 78.95°W
Report Text: KW99 222335Z AUTO 19009G14KT 10SM BKN110 12/M09 A3021 RMK AO2 T01211089
Loading
Personal Weather Stations






























Interactive Weather Map New forecast layout! Learn more

10-Day Weather Forecast

Advertisements
Track Severe Weather on mobile